Time;durP1;ratioP1;P1;durP2;ratioP2;P2;SDS_P1;SDS_P2;PMS_P1;PMS_P2;Temp;Humidity;BMP_temperature;BMP_pressure;BME280_temperature;BME280_humidity;BME280_pressure;Samples;Min_cycle;Max_cycle;Signal;HPM_P1;HPM_P2
2023/05/23 00:00:12;;;;;;;0.70;0.60;;;;;;;15.03;83.47;100998.56;841009;23;1152;-80
2023/05/23 00:00:35;;;;;;;0.70;0.60;;;;;;;15.03;83.50;101001.19;843284;23;1386;-80
2023/05/23 00:00:57;;;;;;;0.77;0.68;;;;;;;15.00;83.39;100995.88;847005;23;1319;-79
2023/05/23 00:01:17;;;;;;;0.80;0.77;;;;;;;15.00;83.47;100990.63;847646;23;1105;-80
2023/05/23 00:01:38;;;;;;;1.00;0.90;;;;;;;15.02;83.25;101004.69;843263;23;1016;-80
2023/05/23 00:01:59;;;;;;;0.90;0.90;;;;;;;15.02;83.44;100988.91;838954;23;1167;-80
2023/05/23 00:02:20;;;;;;;0.90;0.90;;;;;;;15.04;83.26;100984.56;845150;23;1190;-79
2023/05/23 00:02:41;;;;;;;1.20;1.10;;;;;;;15.04;83.13;100992.44;844805;23;1086;-80
2023/05/23 00:03:03;;;;;;;1.27;1.17;;;;;;;15.07;83.19;100997.72;845209;23;834;-78
2023/05/23 00:03:24;;;;;;;1.20;1.10;;;;;;;15.05;82.79;100988.94;839502;23;1230;-80
2023/05/23 00:03:46;;;;;;;0.80;0.80;;;;;;;15.04;83.03;100989.81;838583;23;1113;-81
2023/05/23 00:04:07;;;;;;;0.80;0.70;;;;;;;15.06;82.68;101000.34;838798;23;1347;-80
2023/05/23 00:04:29;;;;;;;0.80;0.60;;;;;;;14.98;82.94;100984.47;844797;23;1086;-80
2023/05/23 00:04:51;;;;;;;0.80;0.68;;;;;;;14.90;82.84;100979.13;837331;23;811;-78
2023/05/23 00:05:14;;;;;;;0.70;0.70;;;;;;;14.98;82.80;100987.09;839841;23;1250;-80
2023/05/23 00:05:35;;;;;;;0.73;0.73;;;;;;;15.01;82.98;100987.13;839465;23;1381;-80
2023/05/23 00:05:55;;;;;;;0.80;0.80;;;;;;;14.95;82.93;100981.81;843770;23;1901;-80
2023/05/23 00:06:22;;;;;;;0.75;0.75;;;;;;;14.96;82.94;100988.84;849150;23;1091;-79
2023/05/23 00:06:46;;;;;;;0.70;0.70;;;;;;;14.89;82.96;100982.59;847511;23;1104;-80
2023/05/23 00:07:06;;;;;;;0.70;0.50;;;;;;;15.01;83.00;100992.38;843823;23;1258;-79
2023/05/23 00:07:27;;;;;;;0.70;0.60;;;;;;;14.94;83.11;100990.56;841119;23;944;-80
2023/05/23 00:07:47;;;;;;;0.80;0.80;;;;;;;14.97;83.22;100985.34;839651;23;1130;-81
2023/05/23 00:08:08;;;;;;;0.80;0.80;;;;;;;14.99;83.21;100990.63;849392;23;1120;-80
2023/05/23 00:08:29;;;;;;;0.82;0.82;;;;;;;14.88;83.13;100975.56;847375;23;1122;-79
2023/05/23 00:08:50;;;;;;;1.00;1.00;;;;;;;14.92;83.09;100993.16;835394;23;1437;-79
2023/05/23 00:09:12;;;;;;;1.20;1.10;;;;;;;14.95;82.98;100984.44;839520;23;1243;-79
2023/05/23 00:09:33;;;;;;;1.20;1.10;;;;;;;14.98;83.11;100981.84;839348;23;1256;-80
2023/05/23 00:09:54;;;;;;;0.70;0.70;;;;;;;14.98;83.25;100984.47;839949;23;1162;-80
2023/05/23 00:10:15;;;;;;;0.70;0.60;;;;;;;14.97;83.03;100984.44;841338;23;1081;-80
2023/05/23 00:10:35;;;;;;;0.70;0.60;;;;;;;15.01;82.93;100996.78;840967;23;1113;-79
2023/05/23 00:10:56;;;;;;;0.70;0.60;;;;;;;15.02;83.06;100994.19;835960;23;1222;-78
2023/05/23 00:11:19;;;;;;;0.70;0.60;;;;;;;14.99;82.79;100993.25;845343;23;924;-80
2023/05/23 00:11:43;;;;;;;0.70;0.60;;;;;;;15.00;82.94;100993.25;839528;23;1290;-79
2023/05/23 00:12:05;;;;;;;0.70;0.60;;;;;;;14.98;83.12;100989.72;843924;23;1058;-79
2023/05/23 00:12:26;;;;;;;0.70;0.60;;;;;;;14.97;82.97;100985.34;835682;23;1357;-80
2023/05/23 00:12:47;;;;;;;0.70;0.60;;;;;;;15.02;83.19;100983.66;835731;23;1289;-80
2023/05/23 00:13:08;;;;;;;0.70;0.60;;;;;;;15.02;82.85;100994.19;847092;23;1168;-79
2023/05/23 00:13:29;;;;;;;0.70;0.60;;;;;;;15.04;83.14;100991.53;845112;23;1081;-78
2023/05/23 00:13:50;;;;;;;0.70;0.65;;;;;;;15.04;82.86;101000.31;839640;23;1072;-79
2023/05/23 00:14:14;;;;;;;0.90;0.90;;;;;;;14.99;82.77;100991.50;839905;23;1063;-80
2023/05/23 00:14:35;;;;;;;0.90;0.90;;;;;;;14.95;83.02;100981.81;845153;23;1077;-79
2023/05/23 00:14:56;;;;;;;0.80;0.80;;;;;;;15.01;83.15;101000.25;839992;23;995;-79
2023/05/23 00:15:17;;;;;;;0.70;0.60;;;;;;;14.98;83.14;100981.84;835931;23;1237;-80
2023/05/23 00:15:40;;;;;;;0.70;0.60;;;;;;;15.11;83.10;100992.53;841013;23;926;-80
2023/05/23 00:16:01;;;;;;;0.70;0.60;;;;;;;15.08;82.98;100985.47;838807;23;1362;-80
2023/05/23 00:16:22;;;;;;;0.70;0.60;;;;;;;15.11;83.24;100990.75;845414;23;967;-80
2023/05/23 00:16:44;;;;;;;0.70;0.70;;;;;;;15.07;83.03;100991.59;839601;23;1014;-80
2023/05/23 00:17:06;;;;;;;0.80;0.80;;;;;;;15.07;83.13;100987.22;845350;23;1016;-80
2023/05/23 00:17:27;;;;;;;1.50;1.23;;;;;;;15.10;83.53;100990.75;845238;23;1033;-80
2023/05/23 00:17:48;;;;;;;1.30;1.10;;;;;;;15.12;83.40;100984.63;841080;23;809;-80
2023/05/23 00:18:12;;;;;;;1.25;1.05;;;;;;;15.13;83.56;100982.91;843881;23;1215;-79
2023/05/23 00:18:36;;;;;;;0.70;0.70;;;;;;;15.16;83.28;100991.72;839386;23;1236;-79
2023/05/23 00:18:57;;;;;;;0.70;0.70;;;;;;;15.15;83.29;100989.97;841494;23;799;-79
2023/05/23 00:19:18;;;;;;;0.70;0.70;;;;;;;15.14;83.35;100989.94;841124;23;1019;-80
2023/05/23 00:19:39;;;;;;;0.70;0.65;;;;;;;15.24;83.51;100993.59;835599;23;1146;-79
2023/05/23 00:20:00;;;;;;;0.70;0.60;;;;;;;15.22;83.60;100993.56;841417;23;760;-80
2023/05/23 00:20:21;;;;;;;0.70;0.65;;;;;;;15.21;83.43;100987.44;841313;23;1083;-80
2023/05/23 00:20:42;;;;;;;0.70;0.68;;;;;;;15.26;83.58;100994.47;840940;23;985;-79
2023/05/23 00:21:03;;;;;;;0.70;0.70;;;;;;;15.28;83.36;100991.00;839800;23;1183;-80
2023/05/23 00:21:26;;;;;;;0.70;0.70;;;;;;;15.28;83.49;100985.75;835764;23;1133;-79
2023/05/23 00:21:47;;;;;;;0.80;0.80;;;;;;;15.27;83.46;100983.09;837083;23;1084;-80
2023/05/23 00:22:09;;;;;;;0.80;0.70;;;;;;;15.34;83.49;101000.72;835059;23;1116;-79
2023/05/23 00:22:30;;;;;;;1.00;0.80;;;;;;;15.26;83.40;100979.59;835609;23;1253;-80
2023/05/23 00:22:51;;;;;;;0.90;0.70;;;;;;;15.31;83.48;100985.78;839626;23;1308;-80
2023/05/23 00:23:19;;;;;;;0.90;0.80;;;;;;;15.32;83.39;100994.56;837532;23;1002;-80
2023/05/23 00:23:41;;;;;;;0.80;0.80;;;;;;;15.35;83.45;100999.84;837036;23;946;-79
2023/05/23 00:24:03;;;;;;;1.10;1.00;;;;;;;15.29;83.30;100990.16;836023;23;1105;-80
2023/05/23 00:24:24;;;;;;;1.00;0.90;;;;;;;15.31;83.13;100991.03;841358;23;901;-80
2023/05/23 00:24:44;;;;;;;0.98;0.80;;;;;;;15.31;83.32;100983.16;839643;23;1455;-80
2023/05/23 00:25:06;;;;;;;0.70;0.60;;;;;;;15.35;83.24;100992.84;841447;23;1147;-81
2023/05/23 00:25:32;;;;;;;0.70;0.60;;;;;;;15.35;82.92;100991.97;839863;23;1181;-80
2023/05/23 00:25:54;;;;;;;0.82;0.70;;;;;;;15.35;82.75;100992.84;841460;23;827;-80
2023/05/23 00:26:14;;;;;;;0.90;0.80;;;;;;;15.38;83.20;100999.91;841192;23;1970;-79
2023/05/23 00:26:39;;;;;;;0.90;0.80;;;;;;;15.41;83.13;100996.41;840938;23;1050;-80
2023/05/23 00:27:00;;;;;;;1.27;1.17;;;;;;;15.37;83.02;100995.50;839278;23;1298;-79
2023/05/23 00:27:22;;;;;;;1.30;1.20;;;;;;;15.37;82.89;101002.50;839909;23;1504;-79
2023/05/23 00:27:43;;;;;;;1.30;1.20;;;;;;;15.35;83.10;100998.13;835556;23;1185;-79
2023/05/23 00:28:04;;;;;;;0.70;0.68;;;;;;;15.32;82.94;100994.56;841338;23;1153;-79
2023/05/23 00:28:25;;;;;;;0.70;0.60;;;;;;;15.28;82.54;100998.91;839812;23;1077;-80
2023/05/23 00:28:45;;;;;;;3.50;1.17;;;;;;;15.28;82.94;101001.53;843734;23;1136;-79
2023/05/23 00:29:06;;;;;;;3.53;1.23;;;;;;;15.29;82.87;101003.28;838335;23;1073;-79
2023/05/23 00:29:27;;;;;;;3.60;1.40;;;;;;;15.31;83.24;100998.94;835869;23;1245;-79
2023/05/23 00:29:47;;;;;;;1.40;1.20;;;;;;;15.35;82.84;101006.00;834897;23;1439;-80
2023/05/23 00:30:09;;;;;;;1.42;1.20;;;;;;;15.35;82.89;100998.13;839898;23;1353;-78
2023/05/23 00:30:31;;;;;;;1.50;1.25;;;;;;;15.45;83.18;101024.50;843378;23;1154;-78
2023/05/23 00:30:51;;;;;;;1.10;1.00;;;;;;;15.34;82.69;100996.34;840039;23;1195;-79
2023/05/23 00:31:12;;;;;;;0.77;0.77;;;;;;;15.40;82.66;101010.41;835966;23;1084;-79
2023/05/23 00:31:33;;;;;;;0.80;0.80;;;;;;;15.39;82.46;100996.41;843601;23;1136;-79
2023/05/23 00:31:53;;;;;;;0.70;0.70;;;;;;;15.42;82.89;101006.09;844044;23;1173;-80
2023/05/23 00:32:14;;;;;;;1.03;0.97;;;;;;;15.51;83.08;101018.44;839691;23;1167;-79
2023/05/23 00:32:34;;;;;;;0.88;0.88;;;;;;;15.44;82.31;101022.75;839635;23;1157;-79
2023/05/23 00:32:56;;;;;;;0.80;0.80;;;;;;;15.43;82.66;101010.47;841413;23;795;-78
2023/05/23 00:33:20;;;;;;;0.70;0.60;;;;;;;15.47;82.16;101014.88;846933;23;1269;-79
2023/05/23 00:33:41;;;;;;;0.70;0.60;;;;;;;15.43;82.54;101006.06;843786;23;1239;-80
2023/05/23 00:34:02;;;;;;;0.70;0.60;;;;;;;15.40;81.96;100994.63;845547;23;852;-79
2023/05/23 00:34:22;;;;;;;0.70;0.60;;;;;;;15.44;81.94;101002.56;845499;23;854;-81
2023/05/23 00:34:44;;;;;;;0.70;0.60;;;;;;;15.44;82.05;100997.31;843542;23;1262;-80
2023/05/23 00:35:05;;;;;;;0.70;0.60;;;;;;;15.46;81.99;101005.22;843994;23;1160;-79
2023/05/23 00:35:27;;;;;;;0.70;0.60;;;;;;;15.43;82.05;100992.06;841245;23;974;-79
2023/05/23 00:35:48;;;;;;;0.70;0.60;;;;;;;15.43;82.07;100992.94;843765;23;1230;-79
2023/05/23 00:36:08;;;;;;;0.70;0.60;;;;;;;15.48;82.48;101016.66;845357;23;993;-79
2023/05/23 00:36:29;;;;;;;0.70;0.70;;;;;;;15.52;82.66;101021.09;847080;23;1263;-80
2023/05/23 00:36:50;;;;;;;0.70;0.70;;;;;;;15.47;82.62;101004.38;839352;23;1158;-78
2023/05/23 00:37:11;;;;;;;0.75;0.75;;;;;;;15.39;81.53;101006.03;839885;23;1152;-78
2023/05/23 00:37:33;;;;;;;0.70;0.70;;;;;;;15.40;82.36;101006.06;836853;23;1092;-78
2023/05/23 00:37:54;;;;;;;0.70;0.70;;;;;;;15.40;80.64;101015.69;839866;23;1082;-79
2023/05/23 00:38:15;;;;;;;0.70;0.60;;;;;;;15.43;80.62;101015.72;839887;23;1109;-79
2023/05/23 00:38:36;;;;;;;0.70;0.60;;;;;;;15.45;80.66;101000.84;843579;23;1448;-79
2023/05/23 00:38:56;;;;;;;0.80;0.70;;;;;;;15.44;80.77;100999.94;843941;23;1197;-80
2023/05/23 00:39:20;;;;;;;0.80;0.70;;;;;;;15.45;80.37;101006.09;843715;23;1224;-79
2023/05/23 00:39:41;;;;;;;0.80;0.80;;;;;;;15.47;80.78;101001.75;849080;23;976;-78
2023/05/23 00:40:02;;;;;;;0.70;0.70;;;;;;;15.47;80.26;101017.53;849667;23;1161;-79
2023/05/23 00:40:23;;;;;;;0.80;0.80;;;;;;;15.54;80.75;101015.88;847167;23;1101;-79
2023/05/23 00:40:44;;;;;;;1.23;1.13;;;;;;;15.48;80.68;101003.50;843874;23;1222;-78
2023/05/23 00:41:05;;;;;;;1.40;1.30;;;;;;;15.56;80.74;101019.38;839409;23;1177;-78
2023/05/23 00:41:29;;;;;;;1.55;1.45;;;;;;;15.48;80.16;101009.66;841166;23;933;-78
2023/05/23 00:41:51;;;;;;;0.80;0.80;;;;;;;15.47;80.33;101007.91;839481;23;1294;-79
2023/05/23 00:42:12;;;;;;;0.80;0.80;;;;;;;15.54;80.17;101019.34;841450;23;973;-79
2023/05/23 00:42:33;;;;;;;0.70;0.60;;;;;;;15.45;79.92;101003.47;839432;23;1176;-79
2023/05/23 00:42:55;;;;;;;0.70;0.60;;;;;;;15.53;80.30;101014.97;839967;23;1019;-79
2023/05/23 00:43:16;;;;;;;0.70;0.60;;;;;;;15.45;80.73;101008.72;839825;23;1237;-79
2023/05/23 00:43:37;;;;;;;0.70;0.60;;;;;;;15.45;80.76;101011.38;841002;23;1060;-79
2023/05/23 00:43:58;;;;;;;0.70;0.60;;;;;;;15.39;80.89;101029.69;841231;23;798;-79
2023/05/23 00:44:20;;;;;;;0.70;0.60;;;;;;;15.37;80.12;101018.28;839381;23;1092;-80
2023/05/23 00:44:40;;;;;;;0.90;0.80;;;;;;;15.36;80.11;101004.25;843046;23;1308;-78
2023/05/23 00:45:01;;;;;;;1.00;0.90;;;;;;;15.42;80.31;101013.97;835926;23;1233;-79
2023/05/23 00:45:23;;;;;;;1.00;0.90;;;;;;;15.52;80.35;101022.81;843743;23;1382;-79
2023/05/23 00:45:44;;;;;;;0.70;0.70;;;;;;;15.45;80.13;101012.25;843533;23;1228;-79
2023/05/23 00:46:05;;;;;;;0.70;0.60;;;;;;;15.47;80.07;101017.53;841056;23;1915;-80
2023/05/23 00:46:26;;;;;;;0.70;0.70;;;;;;;15.47;79.64;101022.78;835687;23;1170;-79
2023/05/23 00:46:55;;;;;;;0.70;0.60;;;;;;;15.44;80.05;101013.09;834422;23;1207;-79
2023/05/23 00:47:16;;;;;;;0.70;0.60;;;;;;;15.56;80.44;101028.13;835847;23;1958;-79
2023/05/23 00:47:39;;;;;;;0.70;0.60;;;;;;;15.55;80.35;101025.50;836774;23;1035;-79
2023/05/23 00:48:03;;;;;;;0.70;0.65;;;;;;;15.46;80.09;101010.50;835972;23;1257;-79
2023/05/23 00:48:25;;;;;;;0.70;0.70;;;;;;;15.56;80.53;101025.50;835845;23;1280;-80
2023/05/23 00:48:46;;;;;;;0.70;0.70;;;;;;;15.54;80.24;101036.91;837333;23;1092;-80
2023/05/23 00:49:07;;;;;;;0.80;0.80;;;;;;;15.52;80.23;101014.94;838497;23;1373;-79
2023/05/23 00:49:29;;;;;;;0.70;0.70;;;;;;;15.51;80.14;101019.34;841087;23;1026;-79
2023/05/23 00:49:49;;;;;;;0.70;0.65;;;;;;;15.56;80.19;101027.28;839989;23;1289;-81
2023/05/23 00:50:13;;;;;;;0.70;0.60;;;;;;;15.49;79.97;101018.44;836000;23;1134;-80
2023/05/23 00:50:35;;;;;;;0.70;0.50;;;;;;;15.45;79.75;101009.63;840952;23;968;-79
2023/05/23 00:50:56;;;;;;;0.70;0.60;;;;;;;15.56;79.68;101036.03;848127;23;1201;-79
2023/05/23 00:51:17;;;;;;;0.70;0.60;;;;;;;15.56;80.10;101022.88;849281;23;988;-79
2023/05/23 00:51:38;;;;;;;0.70;0.60;;;;;;;15.49;79.92;101008.78;843190;23;1192;-79
2023/05/23 00:51:59;;;;;;;0.70;0.60;;;;;;;15.49;79.56;101013.19;849381;23;966;-80
2023/05/23 00:52:21;;;;;;;0.70;0.60;;;;;;;15.57;79.92;101029.03;846434;23;1178;-80
2023/05/23 00:52:43;;;;;;;0.70;0.60;;;;;;;15.43;79.30;101023.63;848802;23;1020;-79
2023/05/23 00:53:04;;;;;;;0.70;0.60;;;;;;;15.38;79.04;101006.91;843498;23;1129;-79
2023/05/23 00:53:25;;;;;;;0.70;0.60;;;;;;;15.55;79.61;101023.75;845219;23;960;-79
2023/05/23 00:53:47;;;;;;;0.70;0.60;;;;;;;15.50;79.43;101022.84;843687;23;1192;-79
2023/05/23 00:54:08;;;;;;;0.70;0.60;;;;;;;15.44;79.04;101015.72;841406;23;961;-79
2023/05/23 00:54:32;;;;;;;0.70;0.60;;;;;;;15.52;79.36;101031.63;845189;23;979;-80
2023/05/23 00:54:52;;;;;;;1.00;0.90;;;;;;;15.48;78.63;101021.91;849369;23;887;-80
2023/05/23 00:55:13;;;;;;;1.00;0.90;;;;;;;15.54;78.84;101029.00;849398;23;996;-79
2023/05/23 00:55:36;;;;;;;1.02;0.93;;;;;;;15.54;79.06;101029.88;844847;23;1001;-79
2023/05/23 00:55:56;;;;;;;1.20;1.00;;;;;;;15.43;78.55;101021.00;846995;23;1125;-80
2023/05/23 00:56:17;;;;;;;1.20;1.00;;;;;;;15.49;78.82;101023.69;843373;23;1048;-79
2023/05/23 00:56:38;;;;;;;1.35;0.93;;;;;;;15.49;78.30;101037.72;836950;23;1242;-79
2023/05/23 00:56:59;;;;;;;1.20;0.80;;;;;;;15.44;78.79;101013.09;839265;23;1285;-79
2023/05/23 00:57:21;;;;;;;1.20;0.80;;;;;;;15.47;78.35;101023.69;843181;23;1281;-79
2023/05/23 00:57:43;;;;;;;0.70;0.60;;;;;;;15.56;78.74;101030.78;834753;23;1213;-78
2023/05/23 00:58:04;;;;;;;0.70;0.60;;;;;;;15.58;78.77;101031.69;837240;23;1095;-79
2023/05/23 00:58:25;;;;;;;0.70;0.60;;;;;;;15.60;79.00;101040.47;837211;23;954;-79
2023/05/23 00:58:46;;;;;;;0.70;0.60;;;;;;;15.51;78.96;101019.34;841113;23;979;-80
2023/05/23 00:59:07;;;;;;;0.70;0.60;;;;;;;15.56;78.88;101033.41;843783;23;1227;-80
2023/05/23 00:59:29;;;;;;;0.70;0.60;;;;;;;15.55;79.06;101031.63;841185;23;974;-78
2023/05/23 00:59:51;;;;;;;0.70;0.60;;;;;;;15.54;79.22;101024.63;839962;23;1217;-79
2023/05/23 01:00:13;;;;;;;0.70;0.70;;;;;;;15.51;79.23;101024.59;841195;23;1048;-80
2023/05/23 01:00:34;;;;;;;0.70;0.70;;;;;;;15.50;79.09;101022.84;840850;23;975;-80
2023/05/23 01:00:55;;;;;;;0.70;0.60;;;;;;;15.55;79.46;101023.75;841309;23;748;-79
2023/05/23 01:01:17;;;;;;;0.70;0.60;;;;;;;15.51;78.99;101029.84;835780;23;1268;-79
2023/05/23 01:01:39;;;;;;;1.00;0.80;;;;;;;15.51;78.70;101024.59;834544;23;1438;-80
2023/05/23 01:02:00;;;;;;;1.00;0.80;;;;;;;15.44;78.48;101023.63;838940;23;1224;-80
2023/05/23 01:02:21;;;;;;;0.93;0.75;;;;;;;15.47;78.35;101028.03;835874;23;1315;-78
2023/05/23 01:02:46;;;;;;;0.70;0.60;;;;;;;15.52;78.23;101036.88;837003;23;1006;-79
2023/05/23 01:03:07;;;;;;;0.70;0.70;;;;;;;15.52;78.25;101036.88;839250;23;1325;-79
2023/05/23 01:03:28;;;;;;;0.70;0.70;;;;;;;15.48;78.18;101019.28;839842;23;1152;-79
2023/05/23 01:03:49;;;;;;;1.30;1.10;;;;;;;15.55;78.25;101034.28;843298;23;1285;-79
2023/05/23 01:04:10;;;;;;;1.50;1.20;;;;;;;15.53;78.24;101028.13;835857;23;1110;-79
2023/05/23 01:04:32;;;;;;;1.50;1.20;;;;;;;15.48;77.91;101024.53;836905;23;965;-80
2023/05/23 01:04:54;;;;;;;0.70;0.60;;;;;;;15.52;78.41;101028.97;846783;23;1230;-79
2023/05/23 01:05:21;;;;;;;0.70;0.60;;;;;;;15.48;78.15;101028.06;843813;23;1244;-79
2023/05/23 01:05:42;;;;;;;0.70;0.60;;;;;;;15.50;78.52;101022.84;838778;23;1455;-80
2023/05/23 01:06:03;;;;;;;0.70;0.60;;;;;;;15.51;78.18;101029.84;839830;23;1909;-79
2023/05/23 01:06:24;;;;;;;0.70;0.60;;;;;;;15.51;78.18;101026.31;845318;23;953;-78
2023/05/23 01:06:45;;;;;;;0.70;0.60;;;;;;;15.45;78.02;101024.50;843270;23;1488;-79
2023/05/23 01:07:06;;;;;;;0.70;0.60;;;;;;;15.53;78.24;101033.38;843136;23;1282;-79
2023/05/23 01:07:26;;;;;;;0.70;0.60;;;;;;;15.45;78.21;101025.41;841198;23;1048;-79
2023/05/23 01:07:48;;;;;;;0.70;0.60;;;;;;;15.49;78.00;101026.34;843842;23;1128;-79
2023/05/23 01:08:09;;;;;;;0.70;0.50;;;;;;;15.43;78.25;101013.97;843938;23;1159;-78
2023/05/23 01:08:30;;;;;;;0.70;0.50;;;;;;;15.49;78.43;101024.56;835127;23;1110;-79
2023/05/23 01:08:51;;;;;;;0.70;0.50;;;;;;;15.48;78.26;101021.91;841451;23;774;-79
2023/05/23 01:09:14;;;;;;;0.70;0.60;;;;;;;15.45;78.41;101016.63;838127;23;1499;-80
2023/05/23 01:09:36;;;;;;;0.80;0.80;;;;;;;15.47;78.16;101014.88;846969;23;1429;-80
2023/05/23 01:09:56;;;;;;;0.80;0.80;;;;;;;15.47;78.29;101010.53;847925;23;1208;-79
2023/05/23 01:10:26;;;;;;;0.88;0.80;;;;;;;15.47;78.34;101015.78;843624;23;1149;-79
2023/05/23 01:10:47;;;;;;;1.20;1.00;;;;;;;15.52;78.01;101033.34;839380;23;1173;-79
2023/05/23 01:11:33;;;;;;;1.30;1.00;;;;;;;15.57;78.22;101027.31;843713;23;1256;-78
2023/05/23 01:12:01;;;;;;;0.70;0.60;;;;;;;15.51;78.37;101013.19;843618;23;1156;-79
2023/05/23 01:12:33;;;;;;;0.70;0.60;;;;;;;15.45;77.57;101020.16;835679;23;1181;-79
2023/05/23 01:13:35;;;;;;;0.70;0.60;;;;;;;15.58;77.65;101033.44;837215;23;825;-80
2023/05/23 01:14:11;;;;;;;1.00;0.80;;;;;;;15.51;77.39;101024.59;835841;23;1095;-79
2023/05/23 01:14:51;;;;;;;1.27;1.17;;;;;;;15.57;77.51;101034.28;839417;23;1137;-79
2023/05/23 01:15:16;;;;;;;1.10;1.00;;;;;;;15.54;77.63;101019.34;835007;23;1034;-79
2023/05/23 01:15:53;;;;;;;0.70;0.60;;;;;;;15.49;77.13;101015.81;843577;23;1305;-78
2023/05/23 01:16:23;;;;;;;0.70;0.60;;;;;;;15.51;77.06;101016.69;839812;23;1441;-79
2023/05/23 01:17:00;;;;;;;0.70;0.60;;;;;;;15.55;77.00;101026.38;839232;23;1090;-78
2023/05/23 01:17:49;;;;;;;0.70;0.60;;;;;;;15.55;77.39;101018.50;843909;23;1366;-79
2023/05/23 01:18:18;;;;;;;0.70;0.60;;;;;;;15.56;77.39;101028.13;835909;23;1189;-79
2023/05/23 01:18:53;;;;;;;0.70;0.60;;;;;;;15.53;77.45;101030.75;839514;23;1244;-80
2023/05/23 01:19:52;;;;;;;0.70;0.60;;;;;;;15.58;77.36;101039.59;839746;23;1036;-79
2023/05/23 01:20:23;;;;;;;0.70;0.60;;;;;;;15.52;77.49;101022.81;849460;23;1112;-79
2023/05/23 01:20:51;;;;;;;0.70;0.60;;;;;;;15.60;77.30;101039.56;843513;23;1265;-79
2023/05/23 01:21:16;;;;;;;0.70;0.60;;;;;;;15.52;77.47;101023.72;839940;23;1318;-79
2023/05/23 01:21:39;;;;;;;0.70;0.60;;;;;;;15.58;77.43;101039.59;842306;23;1256;-80
2023/05/23 01:22:10;;;;;;;0.90;0.90;;;;;;;15.58;77.24;101036.94;842706;23;1223;-79
2023/05/23 01:22:51;;;;;;;0.90;0.90;;;;;;;15.62;77.57;101036.09;839009;23;1058;-78
2023/05/23 01:23:24;;;;;;;0.70;0.70;;;;;;;15.60;77.27;101035.22;835987;23;1268;-79
2023/05/23 01:24:03;;;;;;;0.70;0.70;;;;;;;15.61;77.23;101039.59;843554;23;1201;-78
2023/05/23 01:24:45;;;;;;;0.70;0.60;;;;;;;15.51;76.95;101031.59;841301;23;918;-79
2023/05/23 01:25:28;;;;;;;0.70;0.60;;;;;;;15.59;76.71;101041.34;838413;23;1017;-79
2023/05/23 01:26:31;;;;;;;0.70;0.60;;;;;;;15.50;76.72;101025.47;839786;23;1101;-79
2023/05/23 01:27:19;;;;;;;1.30;1.10;;;;;;;15.58;76.55;101031.69;835852;23;1134;-79
2023/05/23 01:27:59;;;;;;;0.70;0.60;;;;;;;15.53;76.29;101033.38;817442;23;1217;-80
2023/05/23 01:28:26;;;;;;;1.08;0.98;;;;;;;15.52;76.43;101036.88;832131;23;1305;-79
2023/05/23 01:28:53;;;;;;;1.10;1.00;;;;;;;15.55;76.68;101031.63;839099;23;1127;-78
2023/05/23 01:29:19;;;;;;;0.80;0.80;;;;;;;15.53;76.81;101027.22;843703;23;1257;-78
2023/05/23 01:29:48;;;;;;;0.70;0.60;;;;;;;15.55;76.94;101033.41;839528;23;1538;-79
2023/05/23 01:30:12;;;;;;;0.70;0.60;;;;;;;15.49;76.43;101021.94;839824;23;1051;-79
2023/05/23 01:30:39;;;;;;;0.70;0.60;;;;;;;15.54;76.74;101024.63;843224;23;1431;-80
2023/05/23 01:31:02;;;;;;;0.70;0.60;;;;;;;15.51;76.71;101021.06;843859;23;1286;-79
2023/05/23 01:31:26;;;;;;;0.70;0.70;;;;;;;15.52;77.03;101030.72;841199;23;1104;-78
2023/05/23 01:31:51;;;;;;;1.05;0.93;;;;;;;15.54;77.24;101032.50;841126;23;1063;-79
2023/05/23 01:32:14;;;;;;;1.10;0.90;;;;;;;15.47;76.22;101028.03;835892;23;1096;-78
2023/05/23 01:32:36;;;;;;;1.30;1.10;;;;;;;15.52;76.55;101031.63;838824;23;1382;-78
2023/05/23 01:32:58;;;;;;;0.90;0.80;;;;;;;15.52;77.07;101028.97;839877;23;1278;-79
2023/05/23 01:33:19;;;;;;;0.90;0.80;;;;;;;15.58;76.66;101052.75;841390;23;1084;-79
2023/05/23 01:33:41;;;;;;;0.70;0.60;;;;;;;15.57;76.76;101043.09;843627;23;1187;-79
2023/05/23 01:34:03;;;;;;;0.70;0.60;;;;;;;15.51;76.60;101029.84;844116;23;1248;-80
2023/05/23 01:34:24;;;;;;;0.70;0.70;;;;;;;15.55;76.33;101033.41;839917;23;1125;-79
2023/05/23 01:34:47;;;;;;;0.70;0.70;;;;;;;15.49;76.03;101042.13;847820;23;1220;-79
2023/05/23 01:35:10;;;;;;;0.70;0.60;;;;;;;15.49;76.18;101031.59;837363;23;938;-78
2023/05/23 01:35:31;;;;;;;0.70;0.60;;;;;;;15.45;76.15;101030.69;843458;23;1200;-80
2023/05/23 01:35:54;;;;;;;0.70;0.70;;;;;;;15.54;76.19;101035.13;845341;23;814;-78
2023/05/23 01:36:18;;;;;;;0.70;0.70;;;;;;;15.51;76.14;101029.84;839662;23;1425;-79
2023/05/23 01:36:42;;;;;;;0.70;0.70;;;;;;;15.51;76.23;101029.84;840812;23;956;-78
2023/05/23 01:37:13;;;;;;;0.90;0.90;;;;;;;15.48;76.45;101024.53;840570;23;1134;-78
2023/05/23 01:37:34;;;;;;;1.10;1.00;;;;;;;15.52;76.44;101031.63;843536;23;1326;-79
2023/05/23 01:37:55;;;;;;;0.70;0.70;;;;;;;15.47;76.28;101035.94;843880;23;1314;-79
2023/05/23 01:38:16;;;;;;;0.70;0.70;;;;;;;15.52;76.11;101036.88;843756;23;1224;-79
2023/05/23 01:38:36;;;;;;;0.70;0.50;;;;;;;15.49;75.97;101036.84;839351;23;1356;-79
2023/05/23 01:38:57;;;;;;;0.70;0.60;;;;;;;15.49;75.93;101034.22;841266;23;740;-79
2023/05/23 01:39:18;;;;;;;0.70;0.60;;;;;;;15.49;75.97;101034.22;839430;23;1330;-79
2023/05/23 01:39:39;;;;;;;0.70;0.60;;;;;;;15.55;75.74;101041.28;837014;23;1013;-78
2023/05/23 01:40:01;;;;;;;1.00;0.80;;;;;;;15.54;75.88;101040.41;841324;23;815;-79
2023/05/23 01:40:25;;;;;;;1.00;0.90;;;;;;;15.58;76.02;101044.84;841395;23;791;-79
2023/05/23 01:40:45;;;;;;;1.00;0.80;;;;;;;15.55;75.96;101036.91;847793;23;1109;-79
2023/05/23 01:41:06;;;;;;;0.70;0.60;;;;;;;15.53;75.82;101033.38;844093;23;1204;-79
2023/05/23 01:41:27;;;;;;;0.70;0.60;;;;;;;15.57;76.01;101044.81;839710;23;1039;-80
2023/05/23 01:41:50;;;;;;;0.70;0.60;;;;;;;15.53;75.78;101036.00;841353;23;839;-79
2023/05/23 01:42:11;;;;;;;0.70;0.60;;;;;;;15.53;76.02;101032.47;845293;23;1035;-80
2023/05/23 01:42:32;;;;;;;0.70;0.60;;;;;;;15.53;75.63;101029.84;839932;23;1097;-80
2023/05/23 01:42:56;;;;;;;0.70;0.60;;;;;;;15.62;75.63;101041.38;839040;23;1279;-78
2023/05/23 01:43:16;;;;;;;0.70;0.60;;;;;;;15.69;75.70;101046.72;835920;23;1184;-78
2023/05/23 01:43:37;;;;;;;0.70;0.60;;;;;;;15.69;75.94;101046.72;844927;23;902;-79
2023/05/23 01:43:59;;;;;;;0.70;0.60;;;;;;;15.63;75.69;101040.50;845332;23;807;-79
2023/05/23 01:44:21;;;;;;;0.70;0.60;;;;;;;15.60;75.73;101024.69;845161;23;1257;-79
2023/05/23 01:44:42;;;;;;;0.70;0.60;;;;;;;15.61;75.71;101036.97;839251;23;1204;-79
2023/05/23 01:45:03;;;;;;;0.70;0.60;;;;;;;15.70;75.49;101045.84;839838;23;1255;-79
2023/05/23 01:45:27;;;;;;;0.70;0.50;;;;;;;15.63;75.71;101035.25;843562;23;1293;-80
2023/05/23 01:45:50;;;;;;;0.70;0.60;;;;;;;15.69;75.69;101044.06;843812;23;1441;-79
2023/05/23 01:46:12;;;;;;;0.70;0.60;;;;;;;15.64;75.66;101030.88;843602;23;1928;-80
2023/05/23 01:46:34;;;;;;;0.70;0.60;;;;;;;15.63;75.90;101040.50;847356;23;1342;-79
2023/05/23 01:46:55;;;;;;;0.88;0.80;;;;;;;15.62;75.76;101029.97;843216;23;1328;-79
2023/05/23 01:47:17;;;;;;;1.13;1.02;;;;;;;15.61;75.37;101042.22;843777;23;1177;-79
2023/05/23 01:47:40;;;;;;;1.20;1.10;;;;;;;15.60;75.28;101040.47;838838;23;1167;-79
2023/05/23 01:48:02;;;;;;;0.95;0.90;;;;;;;15.63;75.06;101040.50;843856;23;1114;-80
2023/05/23 01:48:25;;;;;;;0.70;0.70;;;;;;;15.54;75.18;101035.13;839205;23;1313;-80
2023/05/23 01:48:46;;;;;;;0.70;0.70;;;;;;;15.54;75.27;101034.28;843695;23;1269;-79
2023/05/23 01:49:10;;;;;;;0.70;0.60;;;;;;;15.54;75.32;101037.78;841191;23;1052;-80
2023/05/23 01:49:33;;;;;;;0.70;0.60;;;;;;;15.64;75.64;101049.28;834997;23;1079;-79
2023/05/23 01:49:56;;;;;;;0.70;0.60;;;;;;;15.65;75.45;101042.25;841375;23;791;-79
2023/05/23 01:50:17;;;;;;;0.70;0.60;;;;;;;15.60;75.46;101042.22;845523;23;1031;-79
2023/05/23 01:50:38;;;;;;;0.70;0.60;;;;;;;15.56;75.52;101046.56;844793;23;1012;-79
2023/05/23 01:51:00;;;;;;;0.70;0.60;;;;;;;15.58;75.60;101041.31;847949;23;1239;-79
2023/05/23 01:51:22;;;;;;;0.70;0.60;;;;;;;15.46;75.93;101036.78;840722;23;1183;-79
2023/05/23 01:51:44;;;;;;;0.70;0.60;;;;;;;15.57;76.22;101045.72;839697;23;1157;-80